ESSAESGR

Guest
Details From ESSA - Stockholm Arlanda
To ESGR - SKOVDE
Flight Number -
Tags generated
Created
Modified
Stats Distance 142 nm / 263 km
Max Altitude 18,200 ft / 5,547 m
Waypoints 3
Social Downloads 0
Likes 0
Share VATSIM

Download

Looking for another format? Having issues loading an existing format? Contact us
Advertisement - Login to hide

Notes

Basic altitude profile: - Ascent Rate: 2500ft/min - Ascent Speed: 250kts - Cruise Altitude: 35000ft - Cruise Speed: 420kts - Descent Rate: 1500ft/min - Descent Speed: 250kts Options: - Use NATs: yes - Use PACOTS: yes - Use low airways: yes - Use high airways: yes

Route

ESSA TINKA ESGR

ID Type Via Altitude Latitude Longitude Leg Dist Tot Dist Heading (true) Name
O ESSA APT - 0 ft / 0 m 59.65014˚ 17.94363˚ - 0 nm - Stockholm Arlanda
TINKA FIX - 18,200 ft / 5,547 m 59.20519˚ 16.29639˚ 56 nm 56 nm 243° / 241° -
O ESGR APT - 0 ft / 0 m 58.45638˚ 13.97263˚ 85 nm 142 nm 239° / 237° SKOVDE

Altitude Profile

Advertisement - Login to hide

ESSA

Details ICAO ESSA (ARN)
Name Stockholm Arlanda
Region Sweden
Timezone Europe/Stockholm (UTC+1.0)
Stats Elevation 137 ft / 42 m (AMSL)
Location 59.650140° 17.943628°
Runways 3
Magnetic Variation 6.102° E

METAR

ESSA 160520Z 25003KT 5000 BR OVC002 00/00 Q0994 R01L/29//76 R01R/29//70 R08/29//73 TEMPO 3000 -SN

Decode

TAF

TAF ESSA 160530Z 1606/1706 27005KT 2000 BR OVC002 TEMPO 1606/1609 5000 -SNRA OVC005 BECMG 1609/1611 36010KT 9999 NSW SCT005 BKN015 PROB40 1611/1620 2000 SHSN BKN008 BKN020TCU

Decode

Departure Runways

ID Width Length Bearing (true) Bearing (mag) Surface Threshold Offset Overrun Length
01L 148 ft / 45 m 10,812 ft / 3,296 m 10.35° 4.25° Concrete 0 ft / 0 m 0 ft / 0 m
01R 148 ft / 45 m 8,188 ft / 2,496 m 10.38° 4.28° Asphalt 0 ft / 0 m 0 ft / 0 m
08 148 ft / 45 m 8,178 ft / 2,493 m 75.83° 69.73° Concrete 0 ft / 0 m 0 ft / 0 m
19L 148 ft / 45 m 8,188 ft / 2,496 m 190.39° 184.29° Asphalt 0 ft / 0 m 0 ft / 0 m
19R 148 ft / 45 m 10,812 ft / 3,296 m 190.36° 184.26° Concrete 0 ft / 0 m 0 ft / 0 m
26 148 ft / 45 m 8,178 ft / 2,493 m 255.87° 249.77° Concrete 0 ft / 0 m 0 ft / 0 m

ESGR

Details ICAO ESGR (KVB)
Name SKOVDE
Region Sweden
Timezone Europe/Stockholm (UTC+1.0)
Stats Elevation 324 ft / 99 m (AMSL)
Location 58.456379° 13.972632°
Runways 1
Magnetic Variation 4.414° E

METAR

ESGR 160520Z AUTO 23003KT 9999 OVC011/// M01/M03 Q0995

Decode

TAF

Not found

Destination Runways

ID Width Length Bearing (true) Bearing (mag) Surface Threshold Offset Overrun Length
01 98 ft / 30 m 5,686 ft / 1,733 m 15.68° 11.27° Asphalt 0 ft / 0 m 80 ft / 24 m
19 98 ft / 30 m 5,686 ft / 1,733 m 195.69° 191.28° Asphalt 0 ft / 0 m 80 ft / 24 m

Approach Navaids

Runway Type Ident Frequency Range Bearing (true) Bearing (mag) Slope Elevation
19 Localiser SY 108.30 MHz 18 nm / 33 km 195.71° 191.29° - 324 ft / 99 m (AMSL)
19 Glidescope SY 108.30 MHz 10 nm / 19 km 195.68° 191.27° 3.00° 324 ft / 99 m (AMSL)
19 DME SY 108.30 MHz 18 nm / 33 km - - - 328 ft / 100 m (AMSL)